sensor_id;sensor_type;location;lat;lon;timestamp;pressure;altitude;pressure_sealevel;temperature;humidity
72558;BME280;60583;50.094;8.748;2023-07-02T00:00:50;99714.47;;;17.41;92.63
72558;BME280;60583;50.094;8.748;2023-07-02T00:03:17;99713.94;;;17.39;92.29
72558;BME280;60583;50.094;8.748;2023-07-02T00:05:47;99693.28;;;17.18;93.25
72558;BME280;60583;50.094;8.748;2023-07-02T00:08:15;99688.41;;;17.15;93.61
72558;BME280;60583;50.094;8.748;2023-07-02T00:10:41;99717.38;;;17.35;92.69
72558;BME280;60583;50.094;8.748;2023-07-02T00:13:07;99707.88;;;17.27;93.00
72558;BME280;60583;50.094;8.748;2023-07-02T00:15:32;99715.44;;;17.25;93.06
72558;BME280;60583;50.094;8.748;2023-07-02T00:17:57;99683.75;;;17.05;92.56
72558;BME280;60583;50.094;8.748;2023-07-02T00:20:23;99707.31;;;17.20;91.39
72558;BME280;60583;50.094;8.748;2023-07-02T00:22:49;99706.47;;;17.19;91.67
72558;BME280;60583;50.094;8.748;2023-07-02T00:25:15;99707.03;;;17.16;91.80
72558;BME280;60583;50.094;8.748;2023-07-02T00:27:41;99709.44;;;17.18;91.98
72558;BME280;60583;50.094;8.748;2023-07-02T00:30:06;99708.84;;;17.11;91.51
72558;BME280;60583;50.094;8.748;2023-07-02T00:32:32;99714.81;;;17.13;92.11
72558;BME280;60583;50.094;8.748;2023-07-02T00:34:57;99712.41;;;17.16;91.81
72558;BME280;60583;50.094;8.748;2023-07-02T00:37:24;99709.91;;;17.10;91.20
72558;BME280;60583;50.094;8.748;2023-07-02T00:39:49;99726.88;;;17.05;91.41
72558;BME280;60583;50.094;8.748;2023-07-02T00:42:15;99704.22;;;17.01;91.44
72558;BME280;60583;50.094;8.748;2023-07-02T00:44:44;99724.97;;;17.06;91.55
72558;BME280;60583;50.094;8.748;2023-07-02T00:47:12;99733.06;;;17.06;91.63
72558;BME280;60583;50.094;8.748;2023-07-02T00:49:39;99722.19;;;16.96;92.09
72558;BME280;60583;50.094;8.748;2023-07-02T00:52:05;99725.34;;;16.88;92.03
72558;BME280;60583;50.094;8.748;2023-07-02T00:54:31;99727.00;;;16.89;91.99
72558;BME280;60583;50.094;8.748;2023-07-02T00:56:57;99733.94;;;16.85;90.88
72558;BME280;60583;50.094;8.748;2023-07-02T00:59:22;99710.66;;;16.69;90.84
72558;BME280;60583;50.094;8.748;2023-07-02T01:01:48;99742.03;;;16.85;90.62
72558;BME280;60583;50.094;8.748;2023-07-02T01:04:17;99734.34;;;16.72;91.63
72558;BME280;60583;50.094;8.748;2023-07-02T01:06:43;99740.09;;;16.53;93.35
72558;BME280;60583;50.094;8.748;2023-07-02T01:09:10;99734.75;;;16.37;93.89
72558;BME280;60583;50.094;8.748;2023-07-02T01:16:42;99732.28;;;16.52;92.01
72558;BME280;60583;50.094;8.748;2023-07-02T01:22:10;99734.19;;;16.56;89.59
72558;BME280;60583;50.094;8.748;2023-07-02T01:24:37;99729.19;;;16.43;89.39
72558;BME280;60583;50.094;8.748;2023-07-02T01:27:03;99711.31;;;16.32;88.83
72558;BME280;60583;50.094;8.748;2023-07-02T01:29:30;99724.09;;;16.47;88.86
72558;BME280;60583;50.094;8.748;2023-07-02T01:31:56;99709.22;;;16.39;89.17
72558;BME280;60583;50.094;8.748;2023-07-02T01:34:22;99736.47;;;16.43;88.90
72558;BME280;60583;50.094;8.748;2023-07-02T01:36:47;99736.56;;;16.31;89.30
72558;BME280;60583;50.094;8.748;2023-07-02T01:39:13;99736.47;;;16.21;89.51
72558;BME280;60583;50.094;8.748;2023-07-02T01:42:09;99727.00;;;16.19;89.47
72558;BME280;60583;50.094;8.748;2023-07-02T01:44:35;99733.22;;;16.19;89.33
72558;BME280;60583;50.094;8.748;2023-07-02T01:47:01;99731.66;;;16.23;89.01
72558;BME280;60583;50.094;8.748;2023-07-02T01:49:26;99749.19;;;16.26;89.47
72558;BME280;60583;50.094;8.748;2023-07-02T01:51:52;99716.13;;;16.09;89.86
72558;BME280;60583;50.094;8.748;2023-07-02T01:54:19;99724.13;;;16.04;89.75
72558;BME280;60583;50.094;8.748;2023-07-02T01:56:45;99729.28;;;16.05;90.19
72558;BME280;60583;50.094;8.748;2023-07-02T01:59:10;99725.31;;;15.91;90.63
72558;BME280;60583;50.094;8.748;2023-07-02T02:01:37;99741.59;;;16.01;90.01
72558;BME280;60583;50.094;8.748;2023-07-02T02:04:06;99732.53;;;15.85;90.83
72558;BME280;60583;50.094;8.748;2023-07-02T02:06:32;99737.59;;;15.82;90.41
72558;BME280;60583;50.094;8.748;2023-07-02T02:08:57;99736.31;;;15.68;91.00
72558;BME280;60583;50.094;8.748;2023-07-02T02:11:22;99732.06;;;15.72;90.51
72558;BME280;60583;50.094;8.748;2023-07-02T02:13:49;99714.41;;;15.59;90.59
72558;BME280;60583;50.094;8.748;2023-07-02T02:16:14;99742.63;;;15.78;90.19
72558;BME280;60583;50.094;8.748;2023-07-02T02:18:39;99745.25;;;15.73;89.70
72558;BME280;60583;50.094;8.748;2023-07-02T02:21:05;99741.69;;;15.68;89.71
72558;BME280;60583;50.094;8.748;2023-07-02T02:23:30;99751.78;;;15.61;89.61
72558;BME280;60583;50.094;8.748;2023-07-02T02:25:56;99757.16;;;15.61;89.21
72558;BME280;60583;50.094;8.748;2023-07-02T02:28:21;99757.84;;;15.51;88.95
72558;BME280;60583;50.094;8.748;2023-07-02T02:30:46;99755.88;;;15.47;89.50
72558;BME280;60583;50.094;8.748;2023-07-02T02:33:12;99744.88;;;15.31;89.35
72558;BME280;60583;50.094;8.748;2023-07-02T02:35:37;99767.19;;;15.49;89.32
72558;BME280;60583;50.094;8.748;2023-07-02T02:38:03;99767.09;;;15.44;89.44
72558;BME280;60583;50.094;8.748;2023-07-02T02:40:31;99761.25;;;15.47;88.58
72558;BME280;60583;50.094;8.748;2023-07-02T02:42:57;99772.00;;;15.47;88.02
72558;BME280;60583;50.094;8.748;2023-07-02T02:45:22;99761.41;;;15.40;88.40
72558;BME280;60583;50.094;8.748;2023-07-02T02:47:48;99764.66;;;15.42;87.85
72558;BME280;60583;50.094;8.748;2023-07-02T02:50:13;99745.88;;;15.25;88.60
72558;BME280;60583;50.094;8.748;2023-07-02T02:52:39;99760.19;;;15.31;87.88
72558;BME280;60583;50.094;8.748;2023-07-02T02:55:06;99769.47;;;15.40;87.74
72558;BME280;60583;50.094;8.748;2023-07-02T02:57:32;99762.63;;;15.32;87.83
72558;BME280;60583;50.094;8.748;2023-07-02T02:59:58;99757.47;;;15.31;86.81
72558;BME280;60583;50.094;8.748;2023-07-02T03:02:23;99772.31;;;15.33;86.79
72558;BME280;60583;50.094;8.748;2023-07-02T03:04:49;99790.16;;;15.40;86.85
72558;BME280;60583;50.094;8.748;2023-07-02T03:07:15;99791.63;;;15.30;86.33
72558;BME280;60583;50.094;8.748;2023-07-02T03:09:40;99786.00;;;15.32;86.32
72558;BME280;60583;50.094;8.748;2023-07-02T03:12:06;99791.09;;;15.33;86.45
72558;BME280;60583;50.094;8.748;2023-07-02T03:14:32;99805.28;;;15.29;86.54
72558;BME280;60583;50.094;8.748;2023-07-02T03:16:58;99782.09;;;15.23;86.48
72558;BME280;60583;50.094;8.748;2023-07-02T03:19:23;99805.19;;;15.24;86.46
72558;BME280;60583;50.094;8.748;2023-07-02T03:21:49;99802.28;;;15.25;85.90
72558;BME280;60583;50.094;8.748;2023-07-02T03:24:14;99789.41;;;15.27;85.54
72558;BME280;60583;50.094;8.748;2023-07-02T03:26:44;99798.28;;;15.45;84.52
72558;BME280;60583;50.094;8.748;2023-07-02T03:29:09;99804.63;;;15.39;84.08
72558;BME280;60583;50.094;8.748;2023-07-02T03:31:35;99798.88;;;15.47;83.53
72558;BME280;60583;50.094;8.748;2023-07-02T03:34:07;99796.75;;;15.49;83.04
72558;BME280;60583;50.094;8.748;2023-07-02T03:36:33;99800.59;;;15.53;82.49
72558;BME280;60583;50.094;8.748;2023-07-02T03:38:58;99801.91;;;15.50;81.72
72558;BME280;60583;50.094;8.748;2023-07-02T03:41:24;99802.84;;;15.44;82.29
72558;BME280;60583;50.094;8.748;2023-07-02T03:43:50;99799.84;;;15.41;82.85
72558;BME280;60583;50.094;8.748;2023-07-02T03:46:16;99787.13;;;15.36;82.87
72558;BME280;60583;50.094;8.748;2023-07-02T03:48:41;99800.97;;;15.45;82.22
72558;BME280;60583;50.094;8.748;2023-07-02T03:51:06;99815.00;;;15.47;82.44
72558;BME280;60583;50.094;8.748;2023-07-02T03:53:32;99821.66;;;15.44;82.32
72558;BME280;60583;50.094;8.748;2023-07-02T03:55:57;99808.13;;;15.22;83.01
72558;BME280;60583;50.094;8.748;2023-07-02T03:58:23;99819.88;;;15.33;83.02
72558;BME280;60583;50.094;8.748;2023-07-02T04:00:48;99800.16;;;15.27;83.17
72558;BME280;60583;50.094;8.748;2023-07-02T04:03:17;99817.41;;;15.31;82.24
72558;BME280;60583;50.094;8.748;2023-07-02T04:05:43;99818.78;;;15.17;82.72
72558;BME280;60583;50.094;8.748;2023-07-02T04:08:09;99829.09;;;15.09;83.60
72558;BME280;60583;50.094;8.748;2023-07-02T04:10:34;99837.59;;;15.17;82.79
72558;BME280;60583;50.094;8.748;2023-07-02T04:12:59;99826.84;;;15.17;82.26
72558;BME280;60583;50.094;8.748;2023-07-02T04:15:25;99839.81;;;15.20;81.96
72558;BME280;60583;50.094;8.748;2023-07-02T04:17:51;99842.56;;;15.25;81.33
72558;BME280;60583;50.094;8.748;2023-07-02T04:20:17;99841.50;;;15.26;80.81
72558;BME280;60583;50.094;8.748;2023-07-02T04:22:44;99840.78;;;15.31;80.73
72558;BME280;60583;50.094;8.748;2023-07-02T04:25:11;99851.28;;;15.32;80.91
72558;BME280;60583;50.094;8.748;2023-07-02T04:27:43;99844.09;;;15.21;81.18
72558;BME280;60583;50.094;8.748;2023-07-02T04:30:10;99847.84;;;15.20;80.53
72558;BME280;60583;50.094;8.748;2023-07-02T04:32:36;99813.63;;;14.99;81.50
72558;BME280;60583;50.094;8.748;2023-07-02T04:35:05;99851.59;;;15.19;80.36
72558;BME280;60583;50.094;8.748;2023-07-02T04:37:30;99839.13;;;15.13;80.73
72558;BME280;60583;50.094;8.748;2023-07-02T04:39:56;99849.94;;;15.18;80.35
72558;BME280;60583;50.094;8.748;2023-07-02T04:42:21;99860.59;;;15.13;80.16
72558;BME280;60583;50.094;8.748;2023-07-02T04:44:46;99863.00;;;15.26;79.97
72558;BME280;60583;50.094;8.748;2023-07-02T04:47:12;99846.13;;;15.14;79.65
72558;BME280;60583;50.094;8.748;2023-07-02T04:49:38;99842.06;;;15.12;80.09
72558;BME280;60583;50.094;8.748;2023-07-02T04:52:04;99857.97;;;15.30;80.31
72558;BME280;60583;50.094;8.748;2023-07-02T04:54:29;99839.88;;;15.25;79.67
72558;BME280;60583;50.094;8.748;2023-07-02T04:56:55;99851.59;;;15.19;79.77
72558;BME280;60583;50.094;8.748;2023-07-02T04:59:21;99857.59;;;15.10;81.06
72558;BME280;60583;50.094;8.748;2023-07-02T05:01:47;99866.31;;;15.17;81.29
72558;BME280;60583;50.094;8.748;2023-07-02T05:04:12;99856.78;;;15.09;80.39
72558;BME280;60583;50.094;8.748;2023-07-02T05:06:38;99871.06;;;15.26;80.33
72558;BME280;60583;50.094;8.748;2023-07-02T05:09:03;99858.53;;;15.32;78.71
72558;BME280;60583;50.094;8.748;2023-07-02T05:11:29;99874.56;;;15.55;78.44
72558;BME280;60583;50.094;8.748;2023-07-02T05:13:54;99870.06;;;15.61;77.78
72558;BME280;60583;50.094;8.748;2023-07-02T05:16:20;99867.53;;;15.71;76.55
72558;BME280;60583;50.094;8.748;2023-07-02T05:18:45;99859.16;;;15.67;76.16
72558;BME280;60583;50.094;8.748;2023-07-02T05:21:11;99875.19;;;15.79;76.45
72558;BME280;60583;50.094;8.748;2023-07-02T05:23:37;99870.91;;;15.78;76.48
72558;BME280;60583;50.094;8.748;2023-07-02T05:26:02;99874.63;;;15.77;76.04
72558;BME280;60583;50.094;8.748;2023-07-02T05:28:27;99887.66;;;15.85;76.09
72558;BME280;60583;50.094;8.748;2023-07-02T05:30:53;99883.28;;;15.95;76.03
72558;BME280;60583;50.094;8.748;2023-07-02T05:33:18;99857.09;;;15.91;75.05
72558;BME280;60583;50.094;8.748;2023-07-02T05:35:43;99880.47;;;16.07;74.75
72558;BME280;60583;50.094;8.748;2023-07-02T05:38:11;99883.16;;;16.07;74.85
72558;BME280;60583;50.094;8.748;2023-07-02T05:40:36;99884.22;;;16.06;74.15
72558;BME280;60583;50.094;8.748;2023-07-02T05:43:02;99873.44;;;16.06;74.41
72558;BME280;60583;50.094;8.748;2023-07-02T05:45:27;99865.31;;;16.01;74.02
72558;BME280;60583;50.094;8.748;2023-07-02T05:47:54;99870.84;;;16.11;73.69
72558;BME280;60583;50.094;8.748;2023-07-02T05:50:19;99885.03;;;16.23;73.31
72558;BME280;60583;50.094;8.748;2023-07-02T05:52:45;99887.28;;;16.31;73.66
72558;BME280;60583;50.094;8.748;2023-07-02T05:55:11;99878.53;;;16.41;72.76
72558;BME280;60583;50.094;8.748;2023-07-02T05:57:37;99861.94;;;16.27;73.34
72558;BME280;60583;50.094;8.748;2023-07-02T06:00:06;99884.28;;;16.49;72.61
72558;BME280;60583;50.094;8.748;2023-07-02T06:02:32;99877.97;;;16.55;71.41
72558;BME280;60583;50.094;8.748;2023-07-02T06:04:58;99893.53;;;16.75;71.48
72558;BME280;60583;50.094;8.748;2023-07-02T06:07:27;99903.00;;;16.78;71.11
72558;BME280;60583;50.094;8.748;2023-07-02T06:09:52;99902.38;;;16.71;71.46
72558;BME280;60583;50.094;8.748;2023-07-02T06:12:18;99882.50;;;16.77;71.15
72558;BME280;60583;50.094;8.748;2023-07-02T06:14:43;99912.91;;;16.94;70.91
72558;BME280;60583;50.094;8.748;2023-07-02T06:17:09;99917.28;;;17.00;70.19
72558;BME280;60583;50.094;8.748;2023-07-02T06:19:37;99901.94;;;16.79;70.67
72558;BME280;60583;50.094;8.748;2023-07-02T06:22:04;99903.69;;;16.90;70.38
72558;BME280;60583;50.094;8.748;2023-07-02T06:24:29;99912.09;;;16.93;70.14
72558;BME280;60583;50.094;8.748;2023-07-02T06:26:55;99919.53;;;17.08;69.81
72558;BME280;60583;50.094;8.748;2023-07-02T06:29:24;99922.28;;;17.13;69.79
72558;BME280;60583;50.094;8.748;2023-07-02T06:31:50;99914.41;;;17.06;70.07
72558;BME280;60583;50.094;8.748;2023-07-02T06:34:16;99917.38;;;17.10;69.87
72558;BME280;60583;50.094;8.748;2023-07-02T06:36:41;99929.31;;;17.14;69.88
72558;BME280;60583;50.094;8.748;2023-07-02T06:39:07;99922.81;;;17.15;69.93
72558;BME280;60583;50.094;8.748;2023-07-02T06:41:34;99920.63;;;17.12;69.41
72558;BME280;60583;50.094;8.748;2023-07-02T06:44:00;99923.16;;;17.18;69.51
72558;BME280;60583;50.094;8.748;2023-07-02T06:46:25;99925.47;;;17.32;69.80
72558;BME280;60583;50.094;8.748;2023-07-02T06:48:51;99931.13;;;17.35;69.10
72558;BME280;60583;50.094;8.748;2023-07-02T06:51:16;99923.16;;;17.45;68.96
72558;BME280;60583;50.094;8.748;2023-07-02T06:53:42;99921.91;;;17.53;69.05
72558;BME280;60583;50.094;8.748;2023-07-02T06:56:08;99935.03;;;17.71;68.23
72558;BME280;60583;50.094;8.748;2023-07-02T06:58:34;99925.66;;;17.78;67.87
72558;BME280;60583;50.094;8.748;2023-07-02T07:01:00;99919.44;;;17.78;67.47
72558;BME280;60583;50.094;8.748;2023-07-02T07:03:25;99927.22;;;17.69;67.45
72558;BME280;60583;50.094;8.748;2023-07-02T07:05:50;99930.53;;;17.81;67.29
72558;BME280;60583;50.094;8.748;2023-07-02T07:08:16;99936.34;;;17.68;67.85
72558;BME280;60583;50.094;8.748;2023-07-02T07:10:41;99931.09;;;17.83;67.46
72558;BME280;60583;50.094;8.748;2023-07-02T07:13:06;99928.72;;;17.87;67.18
72558;BME280;60583;50.094;8.748;2023-07-02T07:15:34;99931.66;;;17.85;67.17
72558;BME280;60583;50.094;8.748;2023-07-02T07:18:01;99930.63;;;17.92;67.06
72558;BME280;60583;50.094;8.748;2023-07-02T07:20:27;99917.44;;;18.00;66.32
72558;BME280;60583;50.094;8.748;2023-07-02T07:22:52;99940.75;;;18.11;66.87
72558;BME280;60583;50.094;8.748;2023-07-02T07:25:17;99927.72;;;18.35;66.02
72558;BME280;60583;50.094;8.748;2023-07-02T07:27:43;99934.31;;;18.54;65.19
72558;BME280;60583;50.094;8.748;2023-07-02T07:30:08;99945.69;;;18.61;65.32
72558;BME280;60583;50.094;8.748;2023-07-02T07:32:34;99925.06;;;18.45;64.72
72558;BME280;60583;50.094;8.748;2023-07-02T07:34:59;99937.97;;;18.38;65.05
72558;BME280;60583;50.094;8.748;2023-07-02T07:37:25;99945.72;;;18.66;65.42
72558;BME280;60583;50.094;8.748;2023-07-02T07:39:50;99946.34;;;18.83;64.84
72558;BME280;60583;50.094;8.748;2023-07-02T07:42:16;99944.75;;;18.87;64.59
72558;BME280;60583;50.094;8.748;2023-07-02T07:44:42;99944.78;;;18.92;64.60
72558;BME280;60583;50.094;8.748;2023-07-02T07:47:07;99943.72;;;19.03;63.92
72558;BME280;60583;50.094;8.748;2023-07-02T07:49:33;99949.72;;;19.10;63.81
72558;BME280;60583;50.094;8.748;2023-07-02T07:51:58;99955.13;;;19.05;62.99
72558;BME280;60583;50.094;8.748;2023-07-02T07:54:27;99938.94;;;19.21;63.24
72558;BME280;60583;50.094;8.748;2023-07-02T07:56:52;99961.47;;;19.41;63.64
72558;BME280;60583;50.094;8.748;2023-07-02T07:59:17;99958.50;;;19.43;62.50
72558;BME280;60583;50.094;8.748;2023-07-02T08:01:43;99958.50;;;19.38;62.59
72558;BME280;60583;50.094;8.748;2023-07-02T08:04:08;99944.09;;;19.27;62.37
72558;BME280;60583;50.094;8.748;2023-07-02T08:06:33;99941.09;;;19.19;62.51
72558;BME280;60583;50.094;8.748;2023-07-02T08:08:59;99966.59;;;19.38;62.43
72558;BME280;60583;50.094;8.748;2023-07-02T08:11:24;99972.50;;;19.30;62.86
72558;BME280;60583;50.094;8.748;2023-07-02T08:13:50;99960.59;;;19.26;62.93
72558;BME280;60583;50.094;8.748;2023-07-02T08:16:15;99956.72;;;19.06;62.18
72558;BME280;60583;50.094;8.748;2023-07-02T08:18:41;99977.88;;;19.20;62.27
72558;BME280;60583;50.094;8.748;2023-07-02T08:21:06;99960.47;;;18.95;63.16
72558;BME280;60583;50.094;8.748;2023-07-02T08:23:32;99976.16;;;18.98;63.25
72558;BME280;60583;50.094;8.748;2023-07-02T08:25:58;99976.53;;;19.22;62.50
72558;BME280;60583;50.094;8.748;2023-07-02T08:28:23;99973.84;;;19.32;62.06
72558;BME280;60583;50.094;8.748;2023-07-02T08:30:48;99979.91;;;19.54;61.84
72558;BME280;60583;50.094;8.748;2023-07-02T08:33:14;99969.63;;;19.61;61.29
72558;BME280;60583;50.094;8.748;2023-07-02T08:35:39;99981.84;;;19.84;60.17
72558;BME280;60583;50.094;8.748;2023-07-02T08:38:05;99985.66;;;20.03;59.48
72558;BME280;60583;50.094;8.748;2023-07-02T08:40:30;99970.47;;;20.17;58.64
72558;BME280;60583;50.094;8.748;2023-07-02T08:42:55;99949.66;;;20.38;57.31
72558;BME280;60583;50.094;8.748;2023-07-02T08:45:23;99973.66;;;20.75;56.89
72558;BME280;60583;50.094;8.748;2023-07-02T08:47:50;99969.59;;;20.77;57.14
72558;BME280;60583;50.094;8.748;2023-07-02T08:50:16;99962.75;;;20.95;56.98
72558;BME280;60583;50.094;8.748;2023-07-02T08:52:42;99962.72;;;21.05;55.33
72558;BME280;60583;50.094;8.748;2023-07-02T08:55:10;99969.06;;;20.80;55.76
72558;BME280;60583;50.094;8.748;2023-07-02T08:57:35;99970.91;;;20.95;55.86
72558;BME280;60583;50.094;8.748;2023-07-02T09:00:10;99970.84;;;21.15;56.26
72558;BME280;60583;50.094;8.748;2023-07-02T09:02:36;99961.38;;;21.02;56.18
72558;BME280;60583;50.094;8.748;2023-07-02T09:05:02;99959.50;;;21.08;56.41
72558;BME280;60583;50.094;8.748;2023-07-02T09:07:28;99966.56;;;21.09;55.95
72558;BME280;60583;50.094;8.748;2023-07-02T09:09:54;99981.47;;;21.02;55.55
72558;BME280;60583;50.094;8.748;2023-07-02T09:12:26;99947.03;;;20.92;55.68
72558;BME280;60583;50.094;8.748;2023-07-02T09:15:00;99965.16;;;21.17;55.78
72558;BME280;60583;50.094;8.748;2023-07-02T09:17:32;99971.78;;;21.49;54.90
72558;BME280;60583;50.094;8.748;2023-07-02T09:20:00;99961.91;;;21.63;54.93
72558;BME280;60583;50.094;8.748;2023-07-02T09:22:26;99951.63;;;21.55;55.00
72558;BME280;60583;50.094;8.748;2023-07-02T09:24:56;99967.06;;;22.04;54.57
72558;BME280;60583;50.094;8.748;2023-07-02T09:27:35;99959.22;;;22.31;53.29
72558;BME280;60583;50.094;8.748;2023-07-02T09:30:13;99967.63;;;22.35;51.49
72558;BME280;60583;50.094;8.748;2023-07-02T09:32:40;99967.22;;;22.46;51.04
72558;BME280;60583;50.094;8.748;2023-07-02T09:35:06;99963.09;;;22.25;51.40
72558;BME280;60583;50.094;8.748;2023-07-02T09:37:32;99964.41;;;21.99;51.53
72558;BME280;60583;50.094;8.748;2023-07-02T09:39:58;99961.34;;;22.05;51.11
72558;BME280;60583;50.094;8.748;2023-07-02T09:42:27;99955.34;;;21.75;49.81
72558;BME280;60583;50.094;8.748;2023-07-02T09:44:58;99960.16;;;21.78;50.48
72558;BME280;60583;50.094;8.748;2023-07-02T09:47:23;99959.16;;;21.69;50.98
72558;BME280;60583;50.094;8.748;2023-07-02T09:49:58;99969.84;;;21.99;51.58
72558;BME280;60583;50.094;8.748;2023-07-02T09:52:27;99954.09;;;22.53;50.72
72558;BME280;60583;50.094;8.748;2023-07-02T09:54:53;99954.09;;;22.53;49.35
72558;BME280;60583;50.094;8.748;2023-07-02T09:57:19;99947.38;;;22.22;49.47
72558;BME280;60583;50.094;8.748;2023-07-02T09:59:44;99963.00;;;22.35;49.97
72558;BME280;60583;50.094;8.748;2023-07-02T10:02:11;99950.22;;;22.64;48.72
72558;BME280;60583;50.094;8.748;2023-07-02T10:04:46;99945.69;;;22.26;47.89
72558;BME280;60583;50.094;8.748;2023-07-02T10:07:25;99960.56;;;22.05;49.42
72558;BME280;60583;50.094;8.748;2023-07-02T10:09:50;99943.63;;;22.13;49.33
72558;BME280;60583;50.094;8.748;2023-07-02T10:12:19;99969.19;;;22.12;49.48
72558;BME280;60583;50.094;8.748;2023-07-02T10:14:45;99958.03;;;22.13;48.78
72558;BME280;60583;50.094;8.748;2023-07-02T10:17:23;99951.69;;;22.80;47.51
72558;BME280;60583;50.094;8.748;2023-07-02T10:19:52;99942.47;;;23.42;47.44
72558;BME280;60583;50.094;8.748;2023-07-02T10:22:20;99948.63;;;23.85;46.18
72558;BME280;60583;50.094;8.748;2023-07-02T10:27:18;99932.03;;;23.68;42.46
72558;BME280;60583;50.094;8.748;2023-07-02T10:29:50;99940.44;;;24.04;42.67
72558;BME280;60583;50.094;8.748;2023-07-02T10:32:26;99925.59;;;23.96;43.09
72558;BME280;60583;50.094;8.748;2023-07-02T10:34:53;99949.81;;;23.79;43.40
72558;BME280;60583;50.094;8.748;2023-07-02T10:37:18;99950.19;;;23.54;44.51
72558;BME280;60583;50.094;8.748;2023-07-02T10:39:44;99944.09;;;23.62;45.39
72558;BME280;60583;50.094;8.748;2023-07-02T10:42:10;99952.34;;;23.76;43.93
72558;BME280;60583;50.094;8.748;2023-07-02T10:44:50;99943.50;;;23.46;44.03
72558;BME280;60583;50.094;8.748;2023-07-02T10:47:16;99935.81;;;23.30;43.58
72558;BME280;60583;50.094;8.748;2023-07-02T10:49:42;99931.81;;;23.04;43.29
72558;BME280;60583;50.094;8.748;2023-07-02T10:52:07;99946.53;;;23.45;43.85
72558;BME280;60583;50.094;8.748;2023-07-02T10:54:40;99938.81;;;24.03;42.86
72558;BME280;60583;50.094;8.748;2023-07-02T10:57:09;99939.41;;;24.00;42.67
72558;BME280;60583;50.094;8.748;2023-07-02T10:59:35;99944.91;;;23.81;43.01
72558;BME280;60583;50.094;8.748;2023-07-02T11:02:01;99949.88;;;24.12;41.28
72558;BME280;60583;50.094;8.748;2023-07-02T11:04:30;99941.28;;;24.37;40.56
72558;BME280;60583;50.094;8.748;2023-07-02T11:06:55;99950.47;;;24.68;39.97
72558;BME280;60583;50.094;8.748;2023-07-02T11:09:21;99941.81;;;25.07;39.65
72558;BME280;60583;50.094;8.748;2023-07-02T11:14:38;99941.19;;;25.23;38.44
72558;BME280;60583;50.094;8.748;2023-07-02T11:17:06;99938.19;;;24.98;38.71
72558;BME280;60583;50.094;8.748;2023-07-02T11:19:32;99925.63;;;25.24;39.34
72558;BME280;60583;50.094;8.748;2023-07-02T11:21:58;99942.25;;;24.87;39.97
72558;BME280;60583;50.094;8.748;2023-07-02T11:24:28;99953.78;;;24.38;41.23
72558;BME280;60583;50.094;8.748;2023-07-02T11:26:58;99946.53;;;24.15;41.71
72558;BME280;60583;50.094;8.748;2023-07-02T11:29:27;99950.34;;;23.81;42.33
72558;BME280;60583;50.094;8.748;2023-07-02T11:31:53;99953.59;;;23.65;42.78
72558;BME280;60583;50.094;8.748;2023-07-02T11:34:21;99958.38;;;23.54;43.33
72558;BME280;60583;50.094;8.748;2023-07-02T11:36:47;99943.56;;;24.30;42.24
72558;BME280;60583;50.094;8.748;2023-07-02T11:39:13;99932.22;;;24.96;41.10
72558;BME280;60583;50.094;8.748;2023-07-02T11:41:43;99936.03;;;25.93;39.95
72558;BME280;60583;50.094;8.748;2023-07-02T11:44:09;99935.91;;;26.21;38.30
72558;BME280;60583;50.094;8.748;2023-07-02T11:46:35;99933.69;;;25.43;39.23
72558;BME280;60583;50.094;8.748;2023-07-02T11:49:01;99932.81;;;24.52;39.36
72558;BME280;60583;50.094;8.748;2023-07-02T11:51:27;99931.47;;;24.36;40.14
72558;BME280;60583;50.094;8.748;2023-07-02T11:53:53;99933.28;;;24.40;40.79
72558;BME280;60583;50.094;8.748;2023-07-02T11:56:18;99937.59;;;24.87;39.29
72558;BME280;60583;50.094;8.748;2023-07-02T11:58:44;99940.03;;;25.52;38.14
72558;BME280;60583;50.094;8.748;2023-07-02T12:01:09;99942.44;;;25.89;37.32
72558;BME280;60583;50.094;8.748;2023-07-02T12:03:35;99929.38;;;26.08;35.95
72558;BME280;60583;50.094;8.748;2023-07-02T12:06:00;99953.72;;;25.96;34.95
72558;BME280;60583;50.094;8.748;2023-07-02T12:08:25;99937.56;;;26.08;35.76
72558;BME280;60583;50.094;8.748;2023-07-02T12:10:51;99919.34;;;25.95;35.37
72558;BME280;60583;50.094;8.748;2023-07-02T12:13:17;99936.31;;;26.67;34.31
72558;BME280;60583;50.094;8.748;2023-07-02T12:15:42;99920.75;;;26.76;34.75
72558;BME280;60583;50.094;8.748;2023-07-02T12:18:08;99929.38;;;25.86;34.82
72558;BME280;60583;50.094;8.748;2023-07-02T12:20:34;99945.16;;;25.89;35.29
72558;BME280;60583;50.094;8.748;2023-07-02T12:22:59;99934.91;;;25.94;35.06
72558;BME280;60583;50.094;8.748;2023-07-02T12:25:25;99919.09;;;26.05;34.54
72558;BME280;60583;50.094;8.748;2023-07-02T12:27:53;99954.47;;;25.66;34.95
72558;BME280;60583;50.094;8.748;2023-07-02T12:30:19;99951.28;;;25.36;35.35
72558;BME280;60583;50.094;8.748;2023-07-02T12:32:44;99934.00;;;24.73;35.88
72558;BME280;60583;50.094;8.748;2023-07-02T12:35:11;99945.44;;;25.29;35.58
72558;BME280;60583;50.094;8.748;2023-07-02T12:37:46;99939.28;;;25.10;34.81
72558;BME280;60583;50.094;8.748;2023-07-02T12:40:12;99927.13;;;25.30;34.69
72558;BME280;60583;50.094;8.748;2023-07-02T12:42:37;99940.94;;;24.84;35.27
72558;BME280;60583;50.094;8.748;2023-07-02T12:45:05;99952.94;;;24.83;35.59
72558;BME280;60583;50.094;8.748;2023-07-02T12:47:30;99941.84;;;24.80;34.82
72558;BME280;60583;50.094;8.748;2023-07-02T12:49:56;99940.56;;;24.58;34.55
72558;BME280;60583;50.094;8.748;2023-07-02T12:52:21;99941.03;;;24.79;34.97
72558;BME280;60583;50.094;8.748;2023-07-02T12:54:47;99936.78;;;24.87;35.67
72558;BME280;60583;50.094;8.748;2023-07-02T12:57:12;99943.19;;;24.50;35.62
72558;BME280;60583;50.094;8.748;2023-07-02T12:59:37;99943.50;;;24.48;35.92
72558;BME280;60583;50.094;8.748;2023-07-02T13:02:03;99941.19;;;24.55;36.80
72558;BME280;60583;50.094;8.748;2023-07-02T13:04:28;99958.31;;;24.42;36.29
72558;BME280;60583;50.094;8.748;2023-07-02T13:06:54;99946.25;;;23.97;35.77
72558;BME280;60583;50.094;8.748;2023-07-02T13:09:19;99947.34;;;24.15;36.13